Time;durP1;ratioP1;P1;durP2;ratioP2;P2;SDS_P1;SDS_P2;PMS_P1;PMS_P2;Temp;Humidity;BMP_temperature;BMP_pressure;BME280_temperature;BME280_humidity;BME280_pressure;Samples;Min_cycle;Max_cycle;Signal;HPM_P1;HPM_P2
2021/07/18 00:01:52;;;;;;;0.80;0.10;;;;;;;;;;5023072;28;20028;-71
2021/07/18 00:04:19;;;;;;;0.25;0.10;;;;;;;;;;5023653;28;20036;-71
2021/07/18 00:06:46;;;;;;;0.20;0.00;;;;;;;;;;5028048;28;20025;-71
2021/07/18 00:09:13;;;;;;;0.63;0.03;;;;;;;;;;5029177;28;20049;-70
2021/07/18 00:11:41;;;;;;;0.30;0.10;;;;;;;;;;5021886;28;20076;-69
2021/07/18 00:14:11;;;;;;;0.47;0.10;;;;;;;;;;5020434;28;20498;-70
2021/07/18 00:16:38;;;;;;;0.20;0.05;;;;;;;;;;5017544;28;20518;-70
2021/07/18 00:19:06;;;;;;;0.10;0.00;;;;;;;;;;5024385;28;20036;-68
2021/07/18 00:21:33;;;;;;;1.77;0.10;;;;;;;;;;5029669;28;20053;-70
2021/07/18 00:24:00;;;;;;;0.40;0.03;;;;;;;;;;5025076;28;20433;-69
2021/07/18 00:26:27;;;;;;;0.35;0.10;;;;;;;;;;5026845;28;20108;-70
2021/07/18 00:28:55;;;;;;;0.57;0.20;;;;;;;;;;5022487;28;20021;-69
2021/07/18 00:31:22;;;;;;;1.05;0.20;;;;;;;;;;5009182;28;20030;-69
2021/07/18 00:33:49;;;;;;;0.45;0.10;;;;;;;;;;5028063;28;20453;-69
2021/07/18 00:36:16;;;;;;;0.68;0.10;;;;;;;;;;5029630;28;20014;-70
2021/07/18 00:38:43;;;;;;;0.77;0.05;;;;;;;;;;5021881;28;20021;-70
2021/07/18 00:41:10;;;;;;;0.55;0.10;;;;;;;;;;5028536;28;20393;-69
2021/07/18 00:43:37;;;;;;;0.90;0.10;;;;;;;;;;5028713;28;20061;-68
2021/07/18 00:46:06;;;;;;;0.93;0.00;;;;;;;;;;5023308;28;20084;-69
2021/07/18 00:48:35;;;;;;;0.43;0.10;;;;;;;;;;5024144;28;20014;-71
2021/07/18 00:51:02;;;;;;;0.10;0.00;;;;;;;;;;5024600;28;20593;-70
2021/07/18 00:53:30;;;;;;;0.05;0.00;;;;;;;;;;5021300;28;20079;-69
2021/07/18 00:55:57;;;;;;;0.43;0.10;;;;;;;;;;5017217;28;20503;-69
2021/07/18 00:58:25;;;;;;;0.25;0.25;;;;;;;;;;5013304;28;20081;-71
2021/07/18 01:00:52;;;;;;;0.20;0.00;;;;;;;;;;5026315;28;20476;-70
2021/07/18 01:03:19;;;;;;;0.10;0.10;;;;;;;;;;5025318;28;20025;-70
2021/07/18 01:05:46;;;;;;;0.28;0.20;;;;;;;;;;5024070;28;20022;-70
2021/07/18 01:08:13;;;;;;;0.10;0.00;;;;;;;;;;5029640;28;20465;-70
2021/07/18 01:10:41;;;;;;;0.68;0.10;;;;;;;;;;5026424;28;20034;-70
2021/07/18 01:13:08;;;;;;;0.17;0.17;;;;;;;;;;5029441;28;20163;-71
2021/07/18 01:15:35;;;;;;;0.43;0.00;;;;;;;;;;5020654;28;20143;-70
2021/07/18 01:18:02;;;;;;;0.82;0.30;;;;;;;;;;5031560;28;20409;-71
2021/07/18 01:20:29;;;;;;;0.45;0.10;;;;;;;;;;5021612;28;20029;-70
2021/07/18 01:22:56;;;;;;;0.43;0.10;;;;;;;;;;5027726;28;20026;-70
2021/07/18 01:25:24;;;;;;;1.90;0.10;;;;;;;;;;5032681;28;20547;-70
2021/07/18 01:27:51;;;;;;;13.25;1.95;;;;;;;;;;5017352;28;20036;-70
2021/07/18 01:30:18;;;;;;;0.00;0.00;;;;;;;;;;5026034;28;20560;-70
2021/07/18 01:32:45;;;;;;;1.08;0.15;;;;;;;;;;5032085;28;20079;-70
2021/07/18 01:35:13;;;;;;;0.75;0.10;;;;;;;;;;5021135;28;20029;-71
2021/07/18 01:37:40;;;;;;;0.25;0.10;;;;;;;;;;5007883;28;20038;-70
2021/07/18 01:40:08;;;;;;;0.40;0.10;;;;;;;;;;5026618;28;20108;-71
2021/07/18 01:42:35;;;;;;;1.10;0.10;;;;;;;;;;5030509;28;20029;-71
2021/07/18 01:45:02;;;;;;;1.00;0.10;;;;;;;;;;5027803;28;20386;-71
2021/07/18 01:47:30;;;;;;;0.25;0.00;;;;;;;;;;5022877;28;20023;-70
2021/07/18 01:49:57;;;;;;;1.20;0.00;;;;;;;;;;5030764;28;21058;-71
2021/07/18 01:52:24;;;;;;;0.88;0.00;;;;;;;;;;5030201;28;20092;-70
2021/07/18 01:54:55;;;;;;;0.10;0.00;;;;;;;;;;4994580;28;20084;-72
2021/07/18 01:57:22;;;;;;;0.20;0.05;;;;;;;;;;5025010;28;20101;-71
2021/07/18 01:59:49;;;;;;;1.40;0.10;;;;;;;;;;5010466;28;20060;-70
2021/07/18 02:02:16;;;;;;;0.30;0.10;;;;;;;;;;5014896;28;20504;-69
2021/07/18 02:04:43;;;;;;;0.50;0.10;;;;;;;;;;5027104;28;20036;-69
2021/07/18 02:07:10;;;;;;;1.42;0.10;;;;;;;;;;5027296;28;20108;-69
2021/07/18 02:09:38;;;;;;;1.08;0.10;;;;;;;;;;5026457;28;20140;-70
2021/07/18 02:12:06;;;;;;;0.85;0.10;;;;;;;;;;5019639;28;20025;-69
2021/07/18 02:14:37;;;;;;;2.05;0.75;;;;;;;;;;5021453;28;20478;-70
2021/07/18 02:17:04;;;;;;;2.00;0.20;;;;;;;;;;5011320;28;20033;-70
2021/07/18 02:19:32;;;;;;;0.17;0.00;;;;;;;;;;5017519;28;20017;-71
2021/07/18 02:21:59;;;;;;;0.22;0.08;;;;;;;;;;5032622;28;20040;-70
2021/07/18 02:24:26;;;;;;;1.33;0.00;;;;;;;;;;5013422;28;20041;-71
2021/07/18 02:26:56;;;;;;;0.28;0.05;;;;;;;;;;5012797;28;20075;-72
2021/07/18 02:29:24;;;;;;;2.08;0.30;;;;;;;;;;5024111;28;20026;-70
2021/07/18 02:31:56;;;;;;;0.63;0.10;;;;;;;;;;5032397;28;20030;-70
2021/07/18 02:34:24;;;;;;;0.60;0.15;;;;;;;;;;5029221;28;20038;-71
2021/07/18 02:36:51;;;;;;;0.80;0.10;;;;;;;;;;5030686;28;20574;-70
2021/07/18 02:39:18;;;;;;;0.57;0.10;;;;;;;;;;5020773;28;20013;-69
2021/07/18 02:41:45;;;;;;;0.40;0.10;;;;;;;;;;5026285;28;20033;-70
2021/07/18 02:44:14;;;;;;;0.63;0.15;;;;;;;;;;5027080;28;20026;-71
2021/07/18 02:46:42;;;;;;;0.20;0.00;;;;;;;;;;5023727;28;20474;-71
2021/07/18 02:49:09;;;;;;;2.00;0.10;;;;;;;;;;5028071;28;20038;-71
2021/07/18 02:51:36;;;;;;;1.20;0.52;;;;;;;;;;5012426;28;20041;-71
2021/07/18 02:54:03;;;;;;;0.75;0.30;;;;;;;;;;5029304;28;20036;-71
2021/07/18 02:56:30;;;;;;;1.30;0.17;;;;;;;;;;5025766;28;20482;-69
2021/07/18 02:58:57;;;;;;;0.30;0.03;;;;;;;;;;5020160;28;20474;-69
2021/07/18 03:01:24;;;;;;;0.20;0.10;;;;;;;;;;5028630;28;20033;-70
2021/07/18 03:03:51;;;;;;;0.47;0.20;;;;;;;;;;5015068;28;20363;-69
2021/07/18 03:06:19;;;;;;;0.85;0.10;;;;;;;;;;5028287;28;20017;-69
2021/07/18 03:08:46;;;;;;;1.20;0.08;;;;;;;;;;5021873;28;20093;-69
2021/07/18 03:11:13;;;;;;;0.68;0.25;;;;;;;;;;5020372;28;20491;-69
2021/07/18 03:13:40;;;;;;;0.47;0.00;;;;;;;;;;5001672;28;20037;-70
2021/07/18 03:16:07;;;;;;;0.15;0.00;;;;;;;;;;5030056;28;20028;-71
2021/07/18 03:18:34;;;;;;;1.08;0.10;;;;;;;;;;5032154;28;20510;-70
2021/07/18 03:21:01;;;;;;;0.10;0.00;;;;;;;;;;5013269;28;20029;-71
2021/07/18 03:23:28;;;;;;;0.30;0.10;;;;;;;;;;5012221;28;20018;-71
2021/07/18 03:25:55;;;;;;;0.10;0.00;;;;;;;;;;5012545;28;20605;-71
2021/07/18 03:28:23;;;;;;;0.90;0.10;;;;;;;;;;5010311;28;20581;-71
2021/07/18 03:30:50;;;;;;;0.00;0.00;;;;;;;;;;4994718;28;20039;-72
2021/07/18 03:33:18;;;;;;;0.65;0.10;;;;;;;;;;4992764;28;20514;-71
2021/07/18 03:35:45;;;;;;;0.08;0.00;;;;;;;;;;4995070;28;20025;-71
2021/07/18 03:38:12;;;;;;;0.55;0.10;;;;;;;;;;5011015;28;20034;-72
2021/07/18 03:40:39;;;;;;;0.40;0.10;;;;;;;;;;5010129;28;20029;-71
2021/07/18 03:43:06;;;;;;;0.10;0.00;;;;;;;;;;5010880;28;20033;-71
2021/07/18 03:45:34;;;;;;;1.20;0.10;;;;;;;;;;5012393;28;20033;-71
2021/07/18 03:48:01;;;;;;;0.35;0.03;;;;;;;;;;5011072;28;20029;-72
2021/07/18 03:50:28;;;;;;;0.50;0.20;;;;;;;;;;5006394;28;20022;-71
2021/07/18 03:52:55;;;;;;;0.20;0.10;;;;;;;;;;5008501;28;20026;-72
2021/07/18 03:55:22;;;;;;;1.45;0.10;;;;;;;;;;4997128;28;20031;-72
2021/07/18 03:57:49;;;;;;;2.08;0.10;;;;;;;;;;5006263;28;20037;-72
2021/07/18 04:00:17;;;;;;;0.20;0.00;;;;;;;;;;5012222;28;20076;-72
2021/07/18 04:02:44;;;;;;;0.25;0.10;;;;;;;;;;5007686;28;20058;-72
2021/07/18 04:05:11;;;;;;;0.45;0.15;;;;;;;;;;5007514;28;20061;-72
2021/07/18 04:07:39;;;;;;;0.30;0.00;;;;;;;;;;5006425;28;20589;-71
2021/07/18 04:10:06;;;;;;;0.40;0.15;;;;;;;;;;5008804;28;20405;-71
2021/07/18 04:12:33;;;;;;;0.47;0.00;;;;;;;;;;5007583;28;20036;-72
2021/07/18 04:15:00;;;;;;;0.20;0.00;;;;;;;;;;5007055;28;20040;-70
2021/07/18 04:17:27;;;;;;;0.63;0.20;;;;;;;;;;5006702;28;20049;-71
2021/07/18 04:19:54;;;;;;;0.32;0.00;;;;;;;;;;5007970;28;20160;-71
2021/07/18 04:22:22;;;;;;;0.20;0.10;;;;;;;;;;5003770;28;20037;-71
2021/07/18 04:24:49;;;;;;;0.65;0.10;;;;;;;;;;5006094;28;20034;-71
2021/07/18 04:27:16;;;;;;;0.82;0.10;;;;;;;;;;5007879;28;20430;-71
2021/07/18 04:29:43;;;;;;;1.45;0.10;;;;;;;;;;5011524;28;20486;-71
2021/07/18 04:32:10;;;;;;;0.20;0.00;;;;;;;;;;5009731;28;20026;-70
2021/07/18 04:34:41;;;;;;;0.30;0.00;;;;;;;;;;5011953;28;21126;-71
2021/07/18 04:37:08;;;;;;;1.80;0.10;;;;;;;;;;5007315;28;20026;-70
2021/07/18 04:39:35;;;;;;;0.05;0.00;;;;;;;;;;5005863;28;20498;-70
2021/07/18 04:42:03;;;;;;;0.13;0.00;;;;;;;;;;5007179;28;20045;-71
2021/07/18 04:44:30;;;;;;;0.32;0.10;;;;;;;;;;5011817;28;20022;-71
2021/07/18 04:46:57;;;;;;;0.35;0.03;;;;;;;;;;5010096;28;20033;-71
2021/07/18 04:49:25;;;;;;;0.00;0.00;;;;;;;;;;5005432;28;20509;-71
2021/07/18 04:51:52;;;;;;;0.20;0.00;;;;;;;;;;5005269;28;20029;-71
2021/07/18 04:54:20;;;;;;;0.30;0.00;;;;;;;;;;5002638;28;20038;-72
2021/07/18 04:56:47;;;;;;;0.30;0.10;;;;;;;;;;5009201;28;20063;-71
2021/07/18 04:59:14;;;;;;;0.45;0.00;;;;;;;;;;4992825;28;20081;-71
2021/07/18 05:01:41;;;;;;;0.10;0.00;;;;;;;;;;5007999;28;20061;-70
2021/07/18 05:04:08;;;;;;;0.30;0.00;;;;;;;;;;5010091;28;20120;-69
2021/07/18 05:06:35;;;;;;;1.75;0.10;;;;;;;;;;5009262;28;20022;-70
2021/07/18 05:09:02;;;;;;;0.10;0.00;;;;;;;;;;5008466;28;22295;-70
2021/07/18 05:11:30;;;;;;;0.10;0.00;;;;;;;;;;5008851;28;20173;-69
2021/07/18 05:13:57;;;;;;;1.55;0.10;;;;;;;;;;5007260;28;20413;-70
2021/07/18 05:16:25;;;;;;;0.40;0.10;;;;;;;;;;5005052;28;20019;-70
2021/07/18 05:18:52;;;;;;;0.28;0.10;;;;;;;;;;5001957;28;20026;-70
2021/07/18 05:21:19;;;;;;;0.17;0.15;;;;;;;;;;4998139;28;20093;-70
2021/07/18 05:23:47;;;;;;;0.85;0.10;;;;;;;;;;5007149;28;20019;-72
2021/07/18 05:26:14;;;;;;;1.70;0.47;;;;;;;;;;4999320;28;20501;-69
2021/07/18 05:28:41;;;;;;;0.40;0.10;;;;;;;;;;5006458;28;20036;-72
2021/07/18 05:31:08;;;;;;;0.35;0.10;;;;;;;;;;5003216;28;20027;-70
2021/07/18 05:33:35;;;;;;;0.15;0.10;;;;;;;;;;5001334;28;20041;-70
2021/07/18 05:36:02;;;;;;;0.98;0.20;;;;;;;;;;5003492;28;20041;-71
2021/07/18 05:38:29;;;;;;;0.50;0.17;;;;;;;;;;5006754;28;20042;-71
2021/07/18 05:40:56;;;;;;;1.20;0.28;;;;;;;;;;5000321;28;20478;-71
2021/07/18 05:43:23;;;;;;;0.70;0.25;;;;;;;;;;5004100;28;20026;-72
2021/07/18 05:45:51;;;;;;;0.73;0.30;;;;;;;;;;5002655;28;20022;-72
2021/07/18 05:48:23;;;;;;;0.10;0.10;;;;;;;;;;5005671;28;20061;-71
2021/07/18 05:50:50;;;;;;;0.85;0.00;;;;;;;;;;5008706;28;20432;-71
2021/07/18 05:53:17;;;;;;;0.60;0.10;;;;;;;;;;5008784;28;20095;-71
2021/07/18 05:55:44;;;;;;;1.75;0.10;;;;;;;;;;4999800;28;20034;-71
2021/07/18 05:58:11;;;;;;;0.88;0.43;;;;;;;;;;5001350;28;20026;-72
2021/07/18 06:00:42;;;;;;;0.47;0.10;;;;;;;;;;5000837;28;20364;-72
2021/07/18 06:03:09;;;;;;;0.40;0.10;;;;;;;;;;5006137;28;20465;-72
2021/07/18 06:05:36;;;;;;;0.20;0.13;;;;;;;;;;5007429;28;20486;-71
2021/07/18 06:08:04;;;;;;;0.10;0.10;;;;;;;;;;4998978;28;20030;-71
2021/07/18 06:10:31;;;;;;;0.30;0.10;;;;;;;;;;5009244;28;20018;-70
2021/07/18 06:12:58;;;;;;;0.55;0.10;;;;;;;;;;5015505;28;20029;-70
2021/07/18 06:15:26;;;;;;;0.52;0.25;;;;;;;;;;5011497;28;20018;-71
2021/07/18 06:17:53;;;;;;;0.52;0.15;;;;;;;;;;5008334;28;20097;-71
2021/07/18 06:20:20;;;;;;;0.40;0.20;;;;;;;;;;5010387;28;20109;-72
2021/07/18 06:22:47;;;;;;;0.70;0.10;;;;;;;;;;5008903;28;20100;-72
2021/07/18 06:25:15;;;;;;;1.02;0.20;;;;;;;;;;5008640;28;20022;-72
2021/07/18 06:27:42;;;;;;;0.57;0.10;;;;;;;;;;5008224;28;20042;-72
2021/07/18 06:30:10;;;;;;;0.60;0.20;;;;;;;;;;5009131;28;20080;-71
2021/07/18 06:32:37;;;;;;;0.80;0.40;;;;;;;;;;5010055;28;20091;-72
2021/07/18 06:35:05;;;;;;;0.35;0.20;;;;;;;;;;5011603;28;20072;-72
2021/07/18 06:37:32;;;;;;;0.70;0.35;;;;;;;;;;5011638;28;20025;-72
2021/07/18 06:39:59;;;;;;;0.43;0.20;;;;;;;;;;5012736;28;20037;-71
2021/07/18 06:42:26;;;;;;;0.60;0.32;;;;;;;;;;5005584;28;20076;-71
2021/07/18 06:44:59;;;;;;;0.90;0.30;;;;;;;;;;5017289;28;20121;-71
2021/07/18 06:47:27;;;;;;;0.93;0.30;;;;;;;;;;5021392;28;20063;-71
2021/07/18 06:49:55;;;;;;;0.30;0.10;;;;;;;;;;5023107;28;20093;-70
2021/07/18 06:52:22;;;;;;;0.43;0.10;;;;;;;;;;5025697;28;20017;-73
2021/07/18 06:54:49;;;;;;;0.52;0.20;;;;;;;;;;5027867;28;20060;-70
2021/07/18 06:57:17;;;;;;;0.98;0.20;;;;;;;;;;5019637;28;20551;-71
2021/07/18 06:59:44;;;;;;;0.77;0.10;;;;;;;;;;5028838;28;20395;-72
2021/07/18 07:02:11;;;;;;;0.25;0.13;;;;;;;;;;5024868;28;20055;-72
2021/07/18 07:04:38;;;;;;;0.43;0.15;;;;;;;;;;5025156;28;20025;-71
2021/07/18 07:07:05;;;;;;;1.35;0.20;;;;;;;;;;5020315;28;20021;-71
2021/07/18 07:09:32;;;;;;;0.93;0.20;;;;;;;;;;5027089;28;20108;-71
2021/07/18 07:12:00;;;;;;;1.38;0.30;;;;;;;;;;5014640;28;20120;-72
2021/07/18 07:14:27;;;;;;;1.48;0.40;;;;;;;;;;5022740;28;20120;-71
2021/07/18 07:16:54;;;;;;;0.63;0.30;;;;;;;;;;5015174;28;20022;-71
2021/07/18 07:19:21;;;;;;;1.80;0.50;;;;;;;;;;5015016;28;20084;-71
2021/07/18 07:21:48;;;;;;;0.63;0.40;;;;;;;;;;5018678;28;20018;-72
2021/07/18 07:24:16;;;;;;;1.13;0.50;;;;;;;;;;5027522;28;20048;-72
2021/07/18 07:26:43;;;;;;;1.25;0.40;;;;;;;;;;5020625;28;20037;-72
2021/07/18 07:29:10;;;;;;;1.15;0.40;;;;;;;;;;5008787;28;20028;-72
2021/07/18 07:31:38;;;;;;;1.15;0.40;;;;;;;;;;5023112;28;20025;-72
2021/07/18 07:34:05;;;;;;;0.85;0.40;;;;;;;;;;5008721;28;20036;-72
2021/07/18 07:36:32;;;;;;;1.45;0.50;;;;;;;;;;4990736;28;20104;-72
2021/07/18 07:38:59;;;;;;;1.30;0.35;;;;;;;;;;5006870;28;20053;-72
2021/07/18 07:41:26;;;;;;;2.28;0.80;;;;;;;;;;5004849;28;20450;-75
2021/07/18 07:43:57;;;;;;;1.42;0.57;;;;;;;;;;5008175;28;20022;-75
2021/07/18 07:46:25;;;;;;;0.70;0.60;;;;;;;;;;5006278;28;20030;-76
2021/07/18 07:48:52;;;;;;;1.55;0.85;;;;;;;;;;5007351;28;20034;-74
2021/07/18 07:51:20;;;;;;;2.25;0.70;;;;;;;;;;5009166;28;20506;-74
2021/07/18 07:53:48;;;;;;;1.00;0.65;;;;;;;;;;5011258;28;20037;-74
2021/07/18 07:56:15;;;;;;;1.50;0.65;;;;;;;;;;5005356;28;20030;-74
2021/07/18 07:58:42;;;;;;;1.58;0.90;;;;;;;;;;5011732;28;20099;-74
2021/07/18 08:01:10;;;;;;;1.45;1.00;;;;;;;;;;5009732;28;20037;-75
2021/07/18 08:03:37;;;;;;;2.28;0.80;;;;;;;;;;5015236;28;20029;-74
2021/07/18 08:06:04;;;;;;;2.03;1.08;;;;;;;;;;5009507;28;20052;-74
2021/07/18 08:08:31;;;;;;;2.20;1.00;;;;;;;;;;5015020;28;20479;-73
2021/07/18 08:10:59;;;;;;;2.55;0.90;;;;;;;;;;5014622;28;20647;-74
2021/07/18 08:13:26;;;;;;;1.15;0.60;;;;;;;;;;5013038;28;20030;-74
2021/07/18 08:15:54;;;;;;;2.72;0.88;;;;;;;;;;4995229;28;20045;-73
2021/07/18 08:18:21;;;;;;;1.77;0.70;;;;;;;;;;5010821;28;20029;-74
2021/07/18 08:20:48;;;;;;;1.67;0.50;;;;;;;;;;4997404;28;20088;-75
2021/07/18 08:23:15;;;;;;;2.20;0.60;;;;;;;;;;5008321;28;20429;-75
2021/07/18 08:25:42;;;;;;;0.90;0.50;;;;;;;;;;5015769;28;20048;-75
2021/07/18 08:28:10;;;;;;;1.30;0.55;;;;;;;;;;5013039;28;20038;-74
2021/07/18 08:30:37;;;;;;;0.95;0.38;;;;;;;;;;5012845;28;20030;-74
2021/07/18 08:33:05;;;;;;;2.85;0.57;;;;;;;;;;5012913;28;20029;-74
2021/07/18 08:35:32;;;;;;;1.27;0.80;;;;;;;;;;5010371;28;20022;-74
2021/07/18 08:37:59;;;;;;;1.88;0.80;;;;;;;;;;5011755;28;20025;-75
2021/07/18 08:40:26;;;;;;;5.20;0.70;;;;;;;;;;5011512;28;20103;-74
2021/07/18 08:42:54;;;;;;;1.63;0.68;;;;;;;;;;5011163;28;20132;-74
2021/07/18 08:45:22;;;;;;;1.65;0.90;;;;;;;;;;4997078;28;20033;-73
2021/07/18 08:47:49;;;;;;;3.40;1.70;;;;;;;;;;4988588;28;20106;-74
2021/07/18 08:50:16;;;;;;;2.95;1.70;;;;;;;;;;5010044;28;20033;-74
2021/07/18 08:52:51;;;;;;;2.65;1.60;;;;;;;;;;5009431;28;20410;-75
2021/07/18 08:55:18;;;;;;;2.85;1.50;;;;;;;;;;5013637;28;20430;-74
2021/07/18 08:57:46;;;;;;;2.05;1.00;;;;;;;;;;5012095;28;20448;-75
2021/07/18 09:00:14;;;;;;;4.22;2.20;;;;;;;;;;5013745;28;20038;-75
2021/07/18 09:02:41;;;;;;;3.47;2.55;;;;;;;;;;5012801;28;20036;-75
2021/07/18 09:05:09;;;;;;;4.57;2.40;;;;;;;;;;5020179;28;20080;-73
2021/07/18 09:07:44;;;;;;;2.10;1.20;;;;;;;;;;5004194;28;20046;-74
2021/07/18 09:10:11;;;;;;;2.63;1.08;;;;;;;;;;5007482;28;20048;-75
2021/07/18 09:12:39;;;;;;;2.30;0.80;;;;;;;;;;5009316;28;20029;-74
2021/07/18 09:15:06;;;;;;;1.25;0.65;;;;;;;;;;5006885;28;20573;-74
2021/07/18 09:17:34;;;;;;;1.83;0.70;;;;;;;;;;5009637;28;20459;-74
2021/07/18 09:20:12;;;;;;;0.70;0.50;;;;;;;;;;5010119;28;20018;-75
2021/07/18 09:22:40;;;;;;;1.58;0.57;;;;;;;;;;5009829;28;20152;-73
2021/07/18 09:25:07;;;;;;;2.58;0.60;;;;;;;;;;5011774;28;20033;-75
2021/07/18 09:27:35;;;;;;;1.00;0.40;;;;;;;;;;5012867;28;20025;-73
2021/07/18 09:30:07;;;;;;;1.92;0.90;;;;;;;;;;5013673;28;20069;-75
2021/07/18 09:32:35;;;;;;;0.75;0.30;;;;;;;;;;4994397;28;20025;-74
2021/07/18 09:35:05;;;;;;;2.60;0.50;;;;;;;;;;5009869;28;20564;-74
2021/07/18 09:37:34;;;;;;;0.80;0.32;;;;;;;;;;4992141;28;20037;-73
2021/07/18 09:40:02;;;;;;;1.17;0.80;;;;;;;;;;5011957;28;20415;-75
2021/07/18 09:42:36;;;;;;;1.50;0.47;;;;;;;;;;5008658;28;20549;-76
2021/07/18 09:45:15;;;;;;;0.55;0.28;;;;;;;;;;5005259;28;20033;-75
2021/07/18 09:48:02;;;;;;;0.52;0.40;;;;;;;;;;4990196;28;20123;-75
2021/07/18 09:50:29;;;;;;;0.57;0.30;;;;;;;;;;4994465;28;20038;-75
2021/07/18 09:53:15;;;;;;;1.83;0.45;;;;;;;;;;5011997;28;20044;-75
2021/07/18 09:55:55;;;;;;;1.58;0.40;;;;;;;;;;5013134;28;20030;-72
2021/07/18 09:58:23;;;;;;;0.70;0.30;;;;;;;;;;5012871;28;20025;-74
2021/07/18 10:00:50;;;;;;;1.52;0.45;;;;;;;;;;4995302;28;20026;-75
2021/07/18 10:03:27;;;;;;;1.60;0.50;;;;;;;;;;5010749;28;20083;-75
2021/07/18 10:06:07;;;;;;;3.95;0.73;;;;;;;;;;5014072;28;20041;-75
2021/07/18 10:08:34;;;;;;;0.95;0.32;;;;;;;;;;4995893;28;20513;-75
2021/07/18 10:11:02;;;;;;;1.10;0.30;;;;;;;;;;5013031;28;20034;-75
2021/07/18 10:13:30;;;;;;;2.53;0.80;;;;;;;;;;5013043;28;20033;-76
2021/07/18 10:15:57;;;;;;;1.40;0.63;;;;;;;;;;4994407;28;20559;-75
2021/07/18 10:18:25;;;;;;;1.58;0.40;;;;;;;;;;5011869;28;20030;-76
2021/07/18 10:20:52;;;;;;;2.55;0.40;;;;;;;;;;5005385;28;20026;-74
2021/07/18 10:23:20;;;;;;;1.50;0.40;;;;;;;;;;5009559;28;20513;-74
2021/07/18 10:25:47;;;;;;;2.15;0.50;;;;;;;;;;5013136;28;20064;-75
2021/07/18 10:28:15;;;;;;;0.95;0.40;;;;;;;;;;5010805;28;20022;-75
2021/07/18 10:30:44;;;;;;;1.50;0.50;;;;;;;;;;4995592;28;20030;-75
2021/07/18 10:33:12;;;;;;;1.25;0.60;;;;;;;;;;4994712;28;20049;-75
2021/07/18 10:35:39;;;;;;;2.00;0.30;;;;;;;;;;4994163;28;20486;-74
2021/07/18 10:38:16;;;;;;;1.05;0.38;;;;;;;;;;4996241;28;20034;-74
2021/07/18 10:40:47;;;;;;;1.67;0.40;;;;;;;;;;5012230;28;20022;-74
2021/07/18 10:43:32;;;;;;;1.65;0.63;;;;;;;;;;5000043;28;20110;-75
2021/07/18 10:45:59;;;;;;;0.40;0.30;;;;;;;;;;4994541;28;20085;-75
2021/07/18 10:48:45;;;;;;;1.05;0.65;;;;;;;;;;5013905;28;20056;-75
2021/07/18 10:51:13;;;;;;;2.28;0.30;;;;;;;;;;5002116;28;20033;-73
2021/07/18 10:53:40;;;;;;;1.23;0.52;;;;;;;;;;5011816;28;20486;-74
2021/07/18 10:56:08;;;;;;;1.08;0.50;;;;;;;;;;5011522;28;20022;-73
2021/07/18 10:58:39;;;;;;;2.15;0.40;;;;;;;;;;5008972;28;20044;-74
2021/07/18 11:01:07;;;;;;;1.08;0.30;;;;;;;;;;5012722;28;20026;-73
2021/07/18 11:03:35;;;;;;;2.25;0.50;;;;;;;;;;5010091;28;20026;-74
2021/07/18 11:06:25;;;;;;;0.60;0.20;;;;;;;;;;5011055;28;20056;-73
2021/07/18 11:09:07;;;;;;;0.60;0.30;;;;;;;;;;4993929;28;20134;-73
2021/07/18 11:11:41;;;;;;;1.20;0.50;;;;;;;;;;4995925;28;20032;-73
2021/07/18 11:14:24;;;;;;;0.50;0.30;;;;;;;;;;5011634;28;20044;-73
2021/07/18 11:16:53;;;;;;;1.45;0.22;;;;;;;;;;5014391;28;20108;-75
2021/07/18 11:19:39;;;;;;;1.02;0.30;;;;;;;;;;5001816;28;20026;-74
2021/07/18 11:22:09;;;;;;;0.45;0.20;;;;;;;;;;5009731;28;20033;-74
2021/07/18 11:24:53;;;;;;;2.05;0.20;;;;;;;;;;5012020;28;20382;-74
2021/07/18 11:27:23;;;;;;;1.85;0.22;;;;;;;;;;5007042;28;20131;-75
2021/07/18 11:29:50;;;;;;;0.80;0.28;;;;;;;;;;5012147;28;20061;-75
2021/07/18 11:32:25;;;;;;;1.38;0.40;;;;;;;;;;4992093;28;20033;-75
2021/07/18 11:34:56;;;;;;;1.67;0.25;;;;;;;;;;5011106;28;20133;-74
2021/07/18 11:37:24;;;;;;;0.57;0.20;;;;;;;;;;5009259;28;20029;-74
2021/07/18 11:39:51;;;;;;;1.30;0.50;;;;;;;;;;4994504;28;20029;-74
2021/07/18 11:42:19;;;;;;;3.50;0.30;;;;;;;;;;5013355;28;20029;-74
2021/07/18 11:44:48;;;;;;;1.10;0.20;;;;;;;;;;5013731;28;20014;-74
2021/07/18 11:47:18;;;;;;;2.08;0.50;;;;;;;;;;5013176;28;20026;-75
2021/07/18 11:49:49;;;;;;;1.13;0.60;;;;;;;;;;4995042;28;20053;-74
2021/07/18 11:52:17;;;;;;;0.68;0.30;;;;;;;;;;4992903;28;20038;-74
2021/07/18 11:54:45;;;;;;;1.40;0.30;;;;;;;;;;4995082;28;20038;-75
2021/07/18 11:57:13;;;;;;;4.30;0.30;;;;;;;;;;4993339;28;20034;-73
2021/07/18 11:59:41;;;;;;;0.70;0.22;;;;;;;;;;5012602;28;20034;-74
2021/07/18 12:02:09;;;;;;;1.35;0.40;;;;;;;;;;5009899;28;20028;-73
2021/07/18 12:04:37;;;;;;;1.15;0.30;;;;;;;;;;4994286;28;20034;-74
2021/07/18 12:07:08;;;;;;;0.50;0.30;;;;;;;;;;4992598;28;20092;-75
2021/07/18 12:09:39;;;;;;;0.93;0.40;;;;;;;;;;4991419;28;20114;-75
2021/07/18 12:12:08;;;;;;;1.33;0.40;;;;;;;;;;4989126;28;20494;-74
2021/07/18 12:14:35;;;;;;;0.80;0.40;;;;;;;;;;4988563;28;20480;-73
2021/07/18 12:17:04;;;;;;;2.50;0.40;;;;;;;;;;4983646;28;20023;-73
2021/07/18 12:19:32;;;;;;;0.70;0.38;;;;;;;;;;4987135;28;20368;-75
2021/07/18 12:22:01;;;;;;;0.63;0.25;;;;;;;;;;4985353;28;20019;-73
2021/07/18 12:24:32;;;;;;;0.80;0.30;;;;;;;;;;4986690;28;20030;-73
2021/07/18 12:27:02;;;;;;;1.45;0.50;;;;;;;;;;4987213;28;20038;-72
2021/07/18 12:29:36;;;;;;;0.95;0.30;;;;;;;;;;4988835;28;20022;-73
2021/07/18 12:32:04;;;;;;;2.38;0.50;;;;;;;;;;4989016;28;20030;-73
2021/07/18 12:34:36;;;;;;;0.82;0.40;;;;;;;;;;4991225;28;20492;-74
2021/07/18 12:37:06;;;;;;;1.35;0.55;;;;;;;;;;4987149;28;20125;-74
2021/07/18 12:39:38;;;;;;;1.83;0.57;;;;;;;;;;4991389;28;20023;-74
2021/07/18 12:42:07;;;;;;;1.73;0.63;;;;;;;;;;4986437;28;20022;-74
2021/07/18 12:44:36;;;;;;;1.88;0.93;;;;;;;;;;4990828;28;20101;-74
2021/07/18 12:47:19;;;;;;;2.33;1.00;;;;;;;;;;4986723;28;20030;-74
2021/07/18 12:50:02;;;;;;;1.65;1.10;;;;;;;;;;4989322;28;20022;-73
2021/07/18 12:52:29;;;;;;;2.88;0.80;;;;;;;;;;4991009;28;20058;-72
2021/07/18 12:54:57;;;;;;;2.10;1.00;;;;;;;;;;4992838;28;20037;-74
2021/07/18 12:57:30;;;;;;;1.55;0.68;;;;;;;;;;4992249;28;20081;-73
2021/07/18 13:00:07;;;;;;;1.63;0.77;;;;;;;;;;4994912;28;20030;-74
2021/07/18 13:02:34;;;;;;;2.47;1.08;;;;;;;;;;4989336;28;20026;-74
2021/07/18 13:05:05;;;;;;;2.40;1.48;;;;;;;;;;4992661;28;20114;-73
2021/07/18 13:07:32;;;;;;;2.00;0.88;;;;;;;;;;4992764;28;20156;-73
2021/07/18 13:10:19;;;;;;;2.75;0.80;;;;;;;;;;5010348;28;20053;-74
2021/07/18 13:12:59;;;;;;;3.58;0.80;;;;;;;;;;5006470;28;20109;-73
2021/07/18 13:15:26;;;;;;;3.05;0.80;;;;;;;;;;5013129;28;20095;-74
2021/07/18 13:18:00;;;;;;;1.85;0.60;;;;;;;;;;5012811;28;20479;-73
2021/07/18 13:20:31;;;;;;;1.73;0.60;;;;;;;;;;5011477;28;20046;-74
2021/07/18 13:23:16;;;;;;;2.00;0.77;;;;;;;;;;5009369;28;20395;-73
2021/07/18 13:25:44;;;;;;;1.38;0.40;;;;;;;;;;5008535;28;21210;-74
2021/07/18 13:28:11;;;;;;;1.10;0.50;;;;;;;;;;4994345;28;20022;-74
2021/07/18 13:30:39;;;;;;;1.90;0.55;;;;;;;;;;5012199;28;20529;-74
2021/07/18 13:33:08;;;;;;;1.83;0.57;;;;;;;;;;4993502;28;20065;-74
2021/07/18 13:35:45;;;;;;;1.88;0.80;;;;;;;;;;4995824;28;20061;-72
2021/07/18 13:38:21;;;;;;;1.00;0.60;;;;;;;;;;4994381;28;20546;-73
2021/07/18 13:40:49;;;;;;;2.97;0.47;;;;;;;;;;5011058;28;20117;-73
2021/07/18 13:43:17;;;;;;;0.98;0.40;;;;;;;;;;4994667;28;20025;-73
2021/07/18 13:45:49;;;;;;;2.45;0.50;;;;;;;;;;5012168;28;20026;-74
2021/07/18 13:48:19;;;;;;;4.32;1.00;;;;;;;;;;4992820;28;20026;-74
2021/07/18 13:50:46;;;;;;;2.10;0.40;;;;;;;;;;5013243;28;20029;-72
2021/07/18 13:53:14;;;;;;;3.28;0.80;;;;;;;;;;5025335;28;20502;-74
2021/07/18 13:55:41;;;;;;;1.80;0.60;;;;;;;;;;5014383;28;20036;-73
2021/07/18 13:58:09;;;;;;;1.95;0.50;;;;;;;;;;5012546;28;20054;-73
2021/07/18 14:00:36;;;;;;;2.28;0.70;;;;;;;;;;5013111;28;20029;-74
2021/07/18 14:03:03;;;;;;;3.00;0.80;;;;;;;;;;4990794;28;20290;-74
2021/07/18 14:05:31;;;;;;;3.72;0.95;;;;;;;;;;4990364;28;20041;-74
2021/07/18 14:07:58;;;;;;;1.67;0.65;;;;;;;;;;5012151;28;20022;-74
2021/07/18 14:10:26;;;;;;;4.18;1.08;;;;;;;;;;5013014;28;20076;-73
2021/07/18 14:12:53;;;;;;;2.50;0.80;;;;;;;;;;5010515;28;20041;-75
2021/07/18 14:15:21;;;;;;;1.50;0.85;;;;;;;;;;5009786;28;20120;-73
2021/07/18 14:17:49;;;;;;;2.53;1.13;;;;;;;;;;4994425;28;20471;-74
2021/07/18 14:20:20;;;;;;;4.75;0.95;;;;;;;;;;4990210;28;20034;-74
2021/07/18 14:22:48;;;;;;;2.75;1.23;;;;;;;;;;5010811;28;20494;-74
2021/07/18 14:25:16;;;;;;;2.50;0.88;;;;;;;;;;5008515;28;20368;-75
2021/07/18 14:27:44;;;;;;;1.77;0.90;;;;;;;;;;5011753;28;20383;-74
2021/07/18 14:30:13;;;;;;;2.80;1.25;;;;;;;;;;4992348;28;20120;-73
2021/07/18 14:32:41;;;;;;;2.80;0.93;;;;;;;;;;5011289;28;20026;-74
2021/07/18 14:35:09;;;;;;;2.03;0.80;;;;;;;;;;4992405;28;20045;-73
2021/07/18 14:37:39;;;;;;;4.45;1.25;;;;;;;;;;5006862;28;20018;-74
2021/07/18 14:40:07;;;;;;;3.15;1.95;;;;;;;;;;5004789;28;20053;-74
2021/07/18 14:42:34;;;;;;;2.42;1.70;;;;;;;;;;5006740;28;20142;-73
2021/07/18 14:45:01;;;;;;;2.80;1.27;;;;;;;;;;5010280;28;20033;-74
2021/07/18 14:47:28;;;;;;;2.17;1.10;;;;;;;;;;5009100;28;20068;-74
2021/07/18 14:49:56;;;;;;;3.90;1.38;;;;;;;;;;4993549;28;20437;-73
2021/07/18 14:52:23;;;;;;;2.25;1.42;;;;;;;;;;5008245;28;20037;-73